Time;durP1;ratioP1;P1;durP2;ratioP2;P2;SDS_P1;SDS_P2;PMS_P1;PMS_P2;Temp;Humidity;BMP_temperature;BMP_pressure;BME280_temperature;BME280_humidity;BME280_pressure;Samples;Min_cycle;Max_cycle;Signal;HPM_P1;HPM_P2
2023/01/03 00:01:21;;;;;;;9.65;1.40;;;5.20;99.90;;;;;;5033175;28;20041;-82
2023/01/03 00:03:46;;;;;;;11.65;1.85;;;5.20;99.90;;;;;;5032930;28;20049;-82
2023/01/03 00:06:21;;;;;;;9.65;1.25;;;5.10;99.90;;;;;;5032840;28;20044;-81
2023/01/03 00:08:47;;;;;;;9.75;1.42;;;5.10;99.90;;;;;;5033133;28;20053;-81
2023/01/03 00:12:22;;;;;;;35.20;3.78;;;5.10;99.90;;;;;;5033120;28;20042;-81
2023/01/03 00:14:09;;;;;;;9.88;1.67;;;5.10;99.90;;;;;;5032707;28;20049;-81
2023/01/03 00:16:36;;;;;;;8.10;1.67;;;5.10;99.90;;;;;;5032747;28;20049;-81
2023/01/03 00:19:13;;;;;;;6.22;1.13;;;5.00;99.90;;;;;;5032991;28;20202;-81
2023/01/03 00:21:40;;;;;;;8.75;1.65;;;5.00;99.90;;;;;;5034586;28;20045;-81
2023/01/03 00:24:05;;;;;;;15.35;2.67;;;5.00;99.90;;;;;;5032578;28;20053;-81
2023/01/03 00:26:32;;;;;;;7.70;1.25;;;4.90;99.90;;;;;;5032473;28;20049;-81
2023/01/03 00:28:58;;;;;;;10.88;1.80;;;4.90;99.90;;;;;;5032777;28;20037;-81
2023/01/03 00:31:23;;;;;;;11.48;1.80;;;4.90;99.90;;;;;;5032601;28;20397;-81
2023/01/03 00:33:49;;;;;;;5.18;1.25;;;4.80;99.90;;;;;;5032794;28;20046;-81
2023/01/03 00:36:15;;;;;;;11.65;2.17;;;4.80;99.90;;;;;;5032519;28;20384;-81
2023/01/03 00:38:41;;;;;;;7.63;1.67;;;4.80;99.90;;;;;;5032362;28;20045;-81
2023/01/03 00:41:12;;;;;;;9.40;1.83;;;4.70;99.90;;;;;;5032218;28;20057;-81
2023/01/03 00:43:39;;;;;;;9.45;1.15;;;4.80;99.90;;;;;;5032362;28;20056;-82
2023/01/03 00:46:05;;;;;;;12.27;2.53;;;4.80;99.90;;;;;;5031692;28;20478;-82
2023/01/03 00:48:31;;;;;;;9.07;1.70;;;4.80;99.90;;;;;;5032339;28;20053;-81
2023/01/03 00:51:03;;;;;;;9.23;2.00;;;4.80;99.90;;;;;;5032171;28;20043;-81
2023/01/03 00:53:28;;;;;;;7.13;1.80;;;4.70;99.90;;;;;;5032512;28;20045;-81
2023/01/03 00:55:54;;;;;;;9.05;1.50;;;4.70;99.90;;;;;;5032230;28;20052;-81
2023/01/03 00:58:20;;;;;;;15.55;2.53;;;4.70;99.90;;;;;;5033344;28;20041;-81
2023/01/03 01:00:45;;;;;;;9.27;2.55;;;4.70;99.90;;;;;;5033463;28;20473;-81
2023/01/03 01:03:11;;;;;;;10.55;1.17;;;4.70;99.90;;;;;;5032441;28;20046;-81
2023/01/03 01:05:37;;;;;;;6.47;1.20;;;4.60;99.90;;;;;;5031996;28;20042;-81
2023/01/03 01:08:02;;;;;;;5.47;1.23;;;4.70;99.90;;;;;;5033459;28;20034;-81
2023/01/03 01:10:28;;;;;;;5.72;1.92;;;4.70;99.90;;;;;;5032327;28;20436;-82
2023/01/03 01:12:55;;;;;;;10.02;1.33;;;4.70;99.90;;;;;;5033308;28;20482;-81
2023/01/03 01:15:21;;;;;;;8.95;2.47;;;4.60;99.90;;;;;;5033240;28;20140;-81
2023/01/03 01:17:46;;;;;;;6.38;1.52;;;4.60;99.90;;;;;;5032299;28;20140;-81
2023/01/03 01:20:12;;;;;;;3.83;1.52;;;4.60;99.90;;;;;;5032160;28;20386;-81
2023/01/03 01:22:38;;;;;;;4.35;1.13;;;4.60;99.90;;;;;;5033238;28;20041;-82
2023/01/03 01:25:04;;;;;;;9.13;1.60;;;4.60;99.90;;;;;;5033114;28;20400;-81
2023/01/03 01:27:30;;;;;;;5.22;1.35;;;4.60;99.90;;;;;;5031901;28;20430;-82
2023/01/03 01:29:56;;;;;;;7.38;1.63;;;4.60;99.90;;;;;;5032067;28;20041;-82
2023/01/03 01:32:21;;;;;;;6.85;1.40;;;4.50;99.90;;;;;;5032260;28;20037;-81
2023/01/03 01:34:47;;;;;;;10.32;1.50;;;4.70;99.90;;;;;;5031867;28;20041;-81
2023/01/03 01:37:13;;;;;;;7.78;1.50;;;4.60;99.90;;;;;;5031857;28;20080;-82
2023/01/03 01:39:38;;;;;;;8.68;1.80;;;4.60;99.90;;;;;;5031958;28;20488;-81
2023/01/03 01:44:57;;;;;;;7.13;1.40;;;4.70;99.90;;;;;;5031860;28;20049;-81
2023/01/03 01:47:41;;;;;;;5.50;1.30;;;4.60;99.90;;;;;;5033186;28;20129;-81
2023/01/03 01:50:25;;;;;;;9.43;2.88;;;4.60;99.90;;;;;;5033573;28;20041;-81
2023/01/03 01:52:56;;;;;;;5.30;1.50;;;4.60;99.90;;;;;;5031890;28;20172;-81
2023/01/03 01:55:27;;;;;;;13.38;1.98;;;4.70;99.90;;;;;;5032149;28;20042;-81
2023/01/03 01:57:53;;;;;;;9.27;1.80;;;4.70;99.90;;;;;;5036321;28;20052;-81
2023/01/03 02:00:19;;;;;;;15.48;1.80;;;4.70;99.90;;;;;;5036707;28;20052;-81
2023/01/03 02:02:48;;;;;;;9.52;2.28;;;4.70;99.90;;;;;;5035600;28;20128;-81
2023/01/03 02:05:16;;;;;;;7.28;1.90;;;4.60;99.90;;;;;;5036626;28;20037;-81
2023/01/03 02:07:43;;;;;;;17.02;2.28;;;4.60;99.90;;;;;;5035225;28;20455;-81
2023/01/03 02:10:09;;;;;;;13.50;2.28;;;4.60;99.90;;;;;;5035094;28;20515;-81
2023/01/03 02:13:05;;;;;;;9.43;1.85;;;4.70;99.90;;;;;;5035335;28;20564;-81
2023/01/03 02:15:37;;;;;;;9.90;2.33;;;4.60;99.90;;;;;;5034978;28;20544;-81
2023/01/03 02:18:34;;;;;;;8.30;1.98;;;4.70;99.90;;;;;;5035080;28;20097;-81
2023/01/03 02:21:22;;;;;;;6.93;1.42;;;4.70;99.90;;;;;;5034855;28;20413;-82
2023/01/03 02:24:05;;;;;;;8.45;1.80;;;4.60;99.90;;;;;;5035074;28;20052;-82
2023/01/03 02:26:40;;;;;;;9.77;2.20;;;4.60;99.90;;;;;;5035069;28;20064;-82
2023/01/03 02:29:51;;;;;;;7.20;1.73;;;4.60;99.90;;;;;;5034817;28;20049;-82
2023/01/03 02:32:33;;;;;;;9.35;1.77;;;4.50;99.90;;;;;;5035076;28;20079;-81
2023/01/03 02:35:16;;;;;;;9.52;2.40;;;4.70;99.90;;;;;;5034718;28;20060;-81
2023/01/03 02:37:50;;;;;;;10.80;2.95;;;4.60;99.90;;;;;;5034688;28;20060;-81
2023/01/03 02:40:36;;;;;;;8.15;2.90;;;4.60;99.90;;;;;;5034942;28;20045;-81
2023/01/03 02:43:07;;;;;;;6.88;1.67;;;4.60;99.90;;;;;;5034682;28;20080;-81
2023/01/03 02:45:58;;;;;;;10.52;2.63;;;4.60;99.90;;;;;;5034693;28;20053;-81
2023/01/03 02:48:36;;;;;;;9.73;1.75;;;4.60;99.90;;;;;;5034741;28;20045;-81
2023/01/03 02:51:10;;;;;;;8.35;2.33;;;4.60;99.90;;;;;;5034481;28;20172;-81
2023/01/03 02:53:40;;;;;;;11.10;1.90;;;4.60;99.90;;;;;;5034474;28;20428;-82
2023/01/03 02:56:16;;;;;;;7.53;2.35;;;4.50;99.90;;;;;;5034282;28;20077;-82
2023/01/03 02:58:47;;;;;;;11.90;2.22;;;4.50;99.90;;;;;;5034550;28;20203;-82
2023/01/03 03:01:15;;;;;;;9.35;2.20;;;4.40;99.90;;;;;;5035683;28;20045;-81
2023/01/03 03:03:41;;;;;;;7.78;2.03;;;4.50;99.90;;;;;;5035521;28;20370;-81
2023/01/03 03:06:14;;;;;;;15.23;2.50;;;4.50;99.90;;;;;;5034337;28;20619;-81
2023/01/03 03:08:44;;;;;;;9.02;3.53;;;4.50;99.90;;;;;;5033603;28;20124;-81
2023/01/03 03:14:23;;;;;;;9.70;2.20;;;4.50;99.90;;;;;;5035110;28;20058;-82
2023/01/03 03:16:50;;;;;;;;;;;4.40;99.90;;;;;;5035742;28;20049;-82
2023/01/03 03:25:28;;;;;;;7.63;2.67;;;4.30;99.90;;;;;;5033711;28;20511;-81
2023/01/03 03:30:55;;;;;;;6.70;2.00;;;4.20;99.90;;;;;;5035037;28;20053;-82
2023/01/03 03:33:23;;;;;;;11.80;3.50;;;4.20;99.90;;;;;;5033535;28;20128;-81
2023/01/03 03:35:56;;;;;;;8.07;2.30;;;4.00;99.90;;;;;;5033464;28;20056;-81
2023/01/03 03:38:29;;;;;;;15.02;3.15;;;4.00;99.90;;;;;;5033789;28;20464;-81
2023/01/03 03:47:30;;;;;;;13.50;3.05;;;4.00;99.90;;;;;;5033077;28;20087;-81
2023/01/03 03:50:04;;;;;;;8.60;2.13;;;3.90;99.90;;;;;;5033443;28;20037;-81
2023/01/03 03:52:31;;;;;;;7.25;2.50;;;3.90;99.90;;;;;;5033273;28;20086;-81
2023/01/03 03:55:03;;;;;;;9.02;2.25;;;3.80;99.90;;;;;;5033482;28;20041;-81
2023/01/03 03:57:34;;;;;;;10.98;2.40;;;3.80;99.90;;;;;;5033284;28;20053;-81
2023/01/03 04:00:20;;;;;;;14.43;3.97;;;3.80;99.90;;;;;;5033267;28;20049;-81
2023/01/03 04:02:47;;;;;;;7.63;2.38;;;3.70;99.90;;;;;;5033972;28;20060;-81
2023/01/03 04:05:18;;;;;;;11.98;2.47;;;3.70;99.90;;;;;;5034350;28;20046;-81
2023/01/03 04:07:43;;;;;;;11.90;2.42;;;3.40;99.90;;;;;;5033113;28;20056;-81
2023/01/03 04:10:10;;;;;;;9.18;2.70;;;3.60;99.90;;;;;;5033297;28;20045;-82
2023/01/03 04:12:36;;;;;;;7.65;2.72;;;3.40;99.90;;;;;;5033169;28;20501;-81
2023/01/03 04:15:02;;;;;;;9.15;2.60;;;3.50;99.90;;;;;;5032691;28;20541;-81
2023/01/03 04:17:28;;;;;;;7.75;2.70;;;3.40;99.90;;;;;;5033022;28;20045;-81
2023/01/03 04:19:54;;;;;;;10.18;3.50;;;3.40;99.90;;;;;;5033241;28;20396;-82
2023/01/03 04:22:19;;;;;;;10.32;3.22;;;3.50;99.90;;;;;;5032799;28;20056;-82
2023/01/03 04:24:45;;;;;;;16.95;3.33;;;3.50;99.90;;;;;;5034117;28;20049;-82
2023/01/03 04:27:11;;;;;;;14.80;4.65;;;3.50;99.90;;;;;;5033911;28;20048;-82
2023/01/03 04:29:36;;;;;;;16.63;4.65;;;3.60;99.90;;;;;;5033984;28;20048;-82
2023/01/03 04:32:02;;;;;;;15.15;4.57;;;3.50;99.90;;;;;;5032504;28;20057;-82
2023/01/03 04:34:28;;;;;;;15.48;4.15;;;3.50;99.90;;;;;;5032707;28;20531;-82
2023/01/03 04:36:53;;;;;;;23.27;4.85;;;3.50;99.90;;;;;;5032553;28;20133;-82
2023/01/03 04:39:19;;;;;;;17.50;4.78;;;3.60;99.90;;;;;;5033883;28;20037;-82
2023/01/03 04:41:44;;;;;;;18.00;5.30;;;3.50;99.90;;;;;;5032584;28;20466;-82
2023/01/03 04:44:10;;;;;;;18.77;4.75;;;3.60;99.90;;;;;;5032310;28;20049;-82
2023/01/03 04:46:38;;;;;;;17.15;7.45;;;3.50;99.90;;;;;;5033751;28;20045;-82
2023/01/03 04:49:07;;;;;;;15.38;5.13;;;3.50;99.90;;;;;;5033764;28;20080;-82
2023/01/03 04:51:33;;;;;;;16.92;4.43;;;3.70;99.90;;;;;;5033716;28;20128;-82
2023/01/03 04:53:59;;;;;;;26.23;5.53;;;3.70;99.90;;;;;;5032609;28;20111;-82
2023/01/03 04:56:33;;;;;;;15.57;5.18;;;3.60;99.90;;;;;;5032333;28;20088;-82
2023/01/03 04:59:00;;;;;;;13.32;4.85;;;3.60;99.90;;;;;;5032127;28;20485;-82
2023/01/03 05:01:26;;;;;;;16.33;4.70;;;3.70;99.90;;;;;;5032169;28;20094;-82
2023/01/03 05:04:00;;;;;;;19.35;6.05;;;3.70;99.90;;;;;;5032251;28;20041;-82
2023/01/03 05:06:26;;;;;;;21.75;5.28;;;3.90;99.90;;;;;;5032186;28;20042;-82
2023/01/03 05:08:53;;;;;;;17.20;5.28;;;3.80;99.90;;;;;;5032519;28;20049;-82
2023/01/03 05:11:18;;;;;;;14.35;4.47;;;4.00;99.90;;;;;;5034022;28;20041;-82
2023/01/03 05:13:44;;;;;;;17.85;4.68;;;4.00;99.90;;;;;;5031973;28;20052;-82
2023/01/03 05:16:12;;;;;;;19.85;5.03;;;3.90;99.90;;;;;;5032083;28;20110;-82
2023/01/03 05:18:39;;;;;;;16.13;4.97;;;3.90;99.90;;;;;;5032073;28;20045;-82
2023/01/03 05:26:45;;;;;;;12.63;5.20;;;3.90;99.90;;;;;;5031926;28;20045;-82
2023/01/03 05:29:12;;;;;;;18.70;6.25;;;4.00;99.90;;;;;;5032040;28;20052;-82
2023/01/03 05:31:38;;;;;;;16.90;6.20;;;3.90;99.90;;;;;;5033932;28;20068;-82
2023/01/03 05:34:03;;;;;;;20.33;7.97;;;3.90;99.90;;;;;;5036195;28;20397;-82
2023/01/03 05:36:29;;;;;;;16.92;6.43;;;4.00;99.90;;;;;;5036016;28;20381;-82
2023/01/03 05:38:55;;;;;;;16.75;6.93;;;3.80;99.90;;;;;;5035750;28;20378;-82
2023/01/03 05:44:05;;;;;;;17.48;6.90;;;3.80;99.90;;;;;;5035766;28;20064;-82
2023/01/03 05:46:31;;;;;;;15.85;6.82;;;3.90;99.90;;;;;;5035545;28;20049;-82
2023/01/03 05:48:57;;;;;;;13.30;5.45;;;3.80;99.90;;;;;;5035797;28;20136;-82
2023/01/03 05:51:23;;;;;;;21.73;6.47;;;3.90;99.90;;;;;;5035489;28;20184;-82
2023/01/03 05:53:49;;;;;;;21.33;7.50;;;3.90;99.90;;;;;;5026504;28;20053;-82
2023/01/03 05:56:15;;;;;;;14.45;6.93;;;3.80;99.90;;;;;;5015970;28;20042;-82
2023/01/03 05:58:44;;;;;;;19.55;6.85;;;3.70;99.90;;;;;;5015726;28;20544;-82
2023/01/03 06:01:12;;;;;;;21.30;7.32;;;3.90;99.90;;;;;;5015633;28;20609;-82
2023/01/03 06:03:37;;;;;;;20.25;8.73;;;3.70;99.90;;;;;;5015726;28;20153;-82
2023/01/03 06:06:05;;;;;;;22.42;7.30;;;3.80;99.90;;;;;;5015391;28;20494;-82
2023/01/03 06:08:31;;;;;;;24.42;8.43;;;3.70;99.90;;;;;;5015519;28;20060;-82
2023/01/03 06:10:56;;;;;;;24.25;8.13;;;3.90;99.90;;;;;;5016789;28;20124;-82
2023/01/03 06:13:22;;;;;;;20.80;7.40;;;3.90;99.90;;;;;;5015238;28;20072;-82
2023/01/03 06:18:41;;;;;;;27.83;10.15;;;3.80;99.90;;;;;;5007799;28;20397;-82
2023/01/03 06:21:06;;;;;;;19.65;9.00;;;3.70;99.90;;;;;;5015512;28;20482;-82
2023/01/03 06:23:32;;;;;;;23.17;9.70;;;3.70;99.90;;;;;;5015249;28;20053;-82
2023/01/03 06:26:02;;;;;;;24.00;8.27;;;3.90;99.90;;;;;;5015085;28;20133;-82
2023/01/03 06:28:28;;;;;;;20.05;9.68;;;3.70;99.90;;;;;;5015268;28;20490;-82
2023/01/03 06:30:54;;;;;;;21.23;9.18;;;3.70;99.90;;;;;;5015277;28;20095;-82
2023/01/03 06:33:19;;;;;;;20.80;8.23;;;3.90;99.90;;;;;;5014999;28;20046;-82
2023/01/03 06:35:45;;;;;;;24.80;8.20;;;3.90;99.90;;;;;;5014996;28;20048;-82
2023/01/03 06:38:11;;;;;;;23.10;8.73;;;3.80;99.90;;;;;;5014972;28;20038;-82
2023/01/03 06:40:36;;;;;;;22.45;9.05;;;3.70;99.90;;;;;;5014905;28;20053;-82
2023/01/03 06:43:02;;;;;;;24.25;9.02;;;3.80;99.90;;;;;;5013695;28;20175;-82
2023/01/03 06:53:41;;;;;;;27.48;10.27;;;3.70;99.90;;;;;;5014738;28;20053;-82
2023/01/03 06:56:08;;;;;;;32.08;10.30;;;3.50;99.90;;;;;;5014564;28;20050;-82
2023/01/03 06:58:35;;;;;;;27.33;11.13;;;3.60;99.90;;;;;;5015871;28;20049;-82
2023/01/03 07:01:02;;;;;;;25.50;10.75;;;3.70;99.90;;;;;;5014533;28;20050;-82
2023/01/03 07:03:29;;;;;;;32.65;11.98;;;3.50;99.90;;;;;;5014760;28;20058;-82
2023/01/03 07:05:55;;;;;;;34.25;11.55;;;3.60;99.90;;;;;;5014256;28;20057;-82
2023/01/03 07:08:20;;;;;;;34.35;12.65;;;3.50;99.90;;;;;;5014151;28;20057;-82
2023/01/03 07:10:46;;;;;;;36.38;13.73;;;3.40;99.90;;;;;;5014307;28;20050;-83
2023/01/03 07:15:56;;;;;;;41.50;16.35;;;3.40;99.90;;;;;;5014530;28;20050;-82
2023/01/03 07:18:22;;;;;;;40.28;14.65;;;3.50;99.90;;;;;;5014021;28;20505;-82
2023/01/03 07:20:47;;;;;;;44.88;16.48;;;3.40;99.90;;;;;;5015406;28;20078;-82
2023/01/03 07:23:13;;;;;;;43.72;16.95;;;3.40;99.90;;;;;;5015264;28;20375;-82
2023/01/03 07:25:40;;;;;;;44.75;16.98;;;3.30;99.90;;;;;;5015255;28;20104;-82
2023/01/03 07:28:13;;;;;;;43.78;16.48;;;3.10;99.90;;;;;;5015023;28;20433;-82
2023/01/03 07:30:41;;;;;;;59.78;19.77;;;3.20;99.90;;;;;;5014203;28;20056;-82
2023/01/03 07:33:09;;;;;;;50.63;18.63;;;3.10;99.90;;;;;;5013938;28;20049;-81
2023/01/03 07:35:36;;;;;;;52.28;19.35;;;3.10;99.90;;;;;;5013502;28;20081;-81
2023/01/03 07:38:03;;;;;;;50.92;18.02;;;3.20;99.90;;;;;;5012567;28;20100;-81
2023/01/03 07:40:29;;;;;;;52.05;19.60;;;3.10;99.90;;;;;;5014648;28;20046;-81
2023/01/03 07:45:43;;;;;;;56.25;18.75;;;3.00;99.90;;;;;;5013466;28;20104;-81
2023/01/03 07:48:09;;;;;;;62.83;21.92;;;3.00;99.90;;;;;;5013584;28;20081;-81
2023/01/03 07:50:36;;;;;;;53.25;20.17;;;3.10;99.90;;;;;;5013743;28;20046;-81
2023/01/03 07:53:02;;;;;;;58.72;22.52;;;3.10;99.90;;;;;;5013310;28;20053;-81
2023/01/03 07:55:28;;;;;;;55.35;21.33;;;3.00;99.90;;;;;;5013079;28;20124;-81
2023/01/03 07:57:55;;;;;;;56.03;21.80;;;3.00;99.90;;;;;;5013174;28;20133;-81
2023/01/03 08:00:21;;;;;;;55.95;20.85;;;2.90;99.90;;;;;;5013189;28;20045;-81
2023/01/03 08:02:46;;;;;;;63.65;21.02;;;2.90;99.90;;;;;;5014950;28;20037;-81
2023/01/03 08:05:12;;;;;;;60.10;20.90;;;2.90;99.90;;;;;;5013135;28;20049;-81
2023/01/03 08:07:38;;;;;;;57.42;23.02;;;2.90;99.90;;;;;;5014304;28;20052;-87
2023/01/03 08:15:35;;;;;;;65.57;22.10;;;3.00;99.90;;;;;;5014275;28;20057;-76
2023/01/03 08:18:02;;;;;;;74.15;23.95;;;3.10;99.90;;;;;;5014288;28;20046;-81
2023/01/03 08:20:28;;;;;;;69.45;23.48;;;3.00;99.90;;;;;;5012807;28;20060;-81
2023/01/03 08:22:56;;;;;;;71.10;22.67;;;3.00;99.90;;;;;;5012921;28;20050;-80
2023/01/03 08:25:21;;;;;;;63.67;22.05;;;2.90;99.90;;;;;;5012645;28;20064;-81
2023/01/03 08:27:47;;;;;;;73.90;26.05;;;2.80;99.90;;;;;;5012575;28;20050;-82
2023/01/03 08:30:13;;;;;;;70.40;25.30;;;2.90;99.90;;;;;;5013164;28;20042;-81
2023/01/03 08:32:38;;;;;;;74.80;25.20;;;3.00;99.90;;;;;;5012466;28;20057;-81
2023/01/03 08:35:05;;;;;;;69.82;23.02;;;2.90;99.90;;;;;;5012531;28;20042;-81
2023/01/03 08:37:31;;;;;;;69.70;24.73;;;2.90;99.90;;;;;;5012800;28;20045;-81
2023/01/03 08:40:01;;;;;;;64.25;23.20;;;2.90;99.90;;;;;;5013817;28;20417;-81
2023/01/03 08:42:27;;;;;;;58.38;22.40;;;3.00;99.90;;;;;;5012670;28;20060;-82
2023/01/03 08:45:03;;;;;;;68.93;24.58;;;2.90;99.90;;;;;;5012604;28;20052;-80
2023/01/03 08:47:29;;;;;;;72.32;24.67;;;3.00;99.90;;;;;;5012272;28;20046;-82
2023/01/03 08:49:56;;;;;;;67.30;24.35;;;3.00;99.90;;;;;;5013813;28;20100;-83
2023/01/03 08:52:22;;;;;;;70.57;26.17;;;3.10;99.90;;;;;;5012264;28;20508;-82
2023/01/03 08:54:48;;;;;;;83.90;28.13;;;3.00;99.90;;;;;;5012178;28;20054;-80
2023/01/03 08:57:13;;;;;;;69.55;26.52;;;3.00;99.90;;;;;;5012235;28;20137;-82
2023/01/03 08:59:39;;;;;;;67.25;24.70;;;3.20;99.90;;;;;;5012372;28;20509;-83
2023/01/03 09:02:05;;;;;;;75.32;26.73;;;3.10;99.90;;;;;;5012444;28;20188;-82
2023/01/03 09:04:30;;;;;;;76.93;26.77;;;3.20;99.90;;;;;;5012084;28;20046;-86
2023/01/03 09:06:56;;;;;;;82.55;26.23;;;3.30;99.90;;;;;;5014481;28;20091;-80
2023/01/03 09:09:22;;;;;;;77.93;25.98;;;3.20;99.90;;;;;;5016587;28;20072;-80
2023/01/03 09:11:47;;;;;;;80.55;27.30;;;3.40;99.90;;;;;;5016165;28;20050;-80
2023/01/03 09:14:13;;;;;;;75.72;27.30;;;3.30;99.90;;;;;;5016202;28;20077;-80
2023/01/03 09:16:42;;;;;;;85.28;28.83;;;3.30;99.90;;;;;;5016009;28;20104;-80
2023/01/03 09:19:07;;;;;;;74.15;27.20;;;3.40;99.90;;;;;;5016308;28;20202;-80
2023/01/03 09:21:33;;;;;;;79.80;25.95;;;3.60;99.90;;;;;;5016281;28;20148;-78
2023/01/03 09:23:59;;;;;;;73.90;25.30;;;3.50;99.90;;;;;;5016164;28;20038;-79
2023/01/03 09:26:24;;;;;;;78.45;26.75;;;3.60;99.90;;;;;;5016378;28;20172;-80
2023/01/03 09:28:50;;;;;;;72.93;25.67;;;3.70;99.90;;;;;;5016100;28;20402;-80
2023/01/03 09:31:16;;;;;;;76.30;26.83;;;3.60;99.90;;;;;;5016132;28;20048;-80
2023/01/03 09:33:41;;;;;;;75.25;25.50;;;3.60;99.90;;;;;;5016220;28;20077;-80
2023/01/03 09:36:07;;;;;;;74.95;26.52;;;3.80;99.90;;;;;;5016192;28;20486;-80
2023/01/03 09:38:33;;;;;;;70.22;26.00;;;3.60;99.90;;;;;;5015431;28;20046;-80
2023/01/03 09:41:08;;;;;;;73.03;24.77;;;3.70;99.90;;;;;;5015800;28;20046;-80
2023/01/03 09:43:44;;;;;;;65.28;25.13;;;3.60;99.90;;;;;;5016311;28;20085;-80
2023/01/03 09:46:20;;;;;;;69.13;25.05;;;3.80;99.90;;;;;;5015937;28;20054;-80
2023/01/03 09:48:47;;;;;;;59.83;21.63;;;3.70;99.90;;;;;;5015748;28;20046;-80
2023/01/03 10:05:42;;;;;;;59.63;19.58;;;3.10;99.90;;;;;;5015490;28;20092;-80
2023/01/03 10:08:27;;;;;;;57.75;19.27;;;2.90;99.90;;;;;;5015309;28;20077;-80
2023/01/03 10:11:06;;;;;;;50.63;18.50;;;3.00;99.90;;;;;;5015323;28;20044;-80
2023/01/03 10:14:11;;;;;;;54.88;20.80;;;2.90;99.90;;;;;;5015070;28;20058;-80
2023/01/03 10:16:46;;;;;;;55.95;20.95;;;2.90;99.90;;;;;;5007045;28;20050;-80
2023/01/03 10:19:37;;;;;;;72.22;25.23;;;2.80;99.90;;;;;;5015420;28;20127;-80
2023/01/03 10:22:18;;;;;;;72.68;25.10;;;2.70;99.90;;;;;;5016681;28;20100;-80
2023/01/03 10:24:56;;;;;;;77.90;29.55;;;2.90;99.90;;;;;;5015291;28;20077;-80
2023/01/03 10:27:25;;;;;;;82.93;29.33;;;2.60;99.90;;;;;;5014887;28;20132;-80
2023/01/03 10:29:55;;;;;;;79.50;28.85;;;2.90;99.90;;;;;;5014861;28;20113;-80
2023/01/03 10:33:14;;;;;;;72.32;25.80;;;2.80;99.90;;;;;;5014880;28;20056;-80
2023/01/03 10:35:40;;;;;;;84.72;29.40;;;2.80;99.90;;;;;;4959241;28;20053;-80
2023/01/03 10:38:06;;;;;;;74.38;25.48;;;2.80;99.90;;;;;;4959001;28;20047;-80
2023/01/03 10:40:45;;;;;;;82.03;28.83;;;2.80;99.90;;;;;;4983026;28;20325;-80
2023/01/03 10:43:38;;;;;;;84.18;30.33;;;3.00;99.90;;;;;;5014718;28;20058;-80
2023/01/03 10:46:12;;;;;;;89.43;28.17;;;3.00;99.90;;;;;;5012764;28;20058;-80
2023/01/03 10:48:40;;;;;;;96.10;30.17;;;3.00;99.90;;;;;;5015000;28;20065;-80
2023/01/03 10:51:20;;;;;;;87.15;26.90;;;3.00;99.90;;;;;;5014559;28;20087;-80
2023/01/03 10:53:47;;;;;;;89.05;29.75;;;3.00;99.90;;;;;;5014702;28;20042;-80
2023/01/03 10:56:15;;;;;;;74.78;27.42;;;3.10;99.90;;;;;;5014495;28;20092;-80
2023/01/03 10:58:41;;;;;;;94.22;30.73;;;3.00;99.90;;;;;;5014555;28;20371;-80
2023/01/03 11:01:22;;;;;;;101.18;30.08;;;3.20;99.90;;;;;;5015666;28;20620;-80
2023/01/03 11:04:17;;;;;;;94.60;31.48;;;3.20;99.90;;;;;;5014251;28;20053;-80
2023/01/03 11:06:57;;;;;;;96.28;30.33;;;3.20;99.90;;;;;;5015623;28;20044;-80
2023/01/03 11:09:25;;;;;;;80.80;27.35;;;3.30;99.90;;;;;;5014179;28;20449;-80
2023/01/03 11:12:02;;;;;;;91.35;28.00;;;3.20;99.90;;;;;;5014184;28;20127;-80
2023/01/03 11:14:28;;;;;;;113.78;35.17;;;3.40;99.90;;;;;;5014125;28;20481;-80
2023/01/03 11:16:58;;;;;;;103.75;30.77;;;3.30;99.90;;;;;;5015236;28;20490;-81
2023/01/03 11:19:27;;;;;;;118.82;34.75;;;3.30;99.90;;;;;;5014020;28;20490;-80
2023/01/03 11:22:22;;;;;;;121.63;35.40;;;3.50;99.90;;;;;;5013905;28;20046;-80
2023/01/03 11:24:52;;;;;;;114.53;33.17;;;3.60;99.90;;;;;;5015276;28;20050;-80
2023/01/03 11:27:38;;;;;;;125.00;35.42;;;3.50;99.90;;;;;;5015240;28;20099;-80
2023/01/03 11:30:29;;;;;;;129.82;34.97;;;3.50;99.90;;;;;;5014487;28;20519;-80
2023/01/03 11:33:28;;;;;;;124.53;35.22;;;3.50;99.90;;;;;;5014105;28;20045;-81
2023/01/03 11:36:15;;;;;;;112.80;33.35;;;3.60;99.90;;;;;;5014042;28;20129;-80
2023/01/03 11:39:18;;;;;;;122.95;35.92;;;3.60;99.90;;;;;;5013935;28;20054;-80
2023/01/03 11:42:25;;;;;;;136.07;36.20;;;3.70;99.90;;;;;;5013853;28;20084;-80
2023/01/03 11:45:00;;;;;;;135.43;34.88;;;4.00;99.90;;;;;;4985095;28;20085;-80
2023/01/03 11:47:35;;;;;;;140.18;39.08;;;4.00;99.90;;;;;;5013469;28;20131;-80
2023/01/03 11:50:40;;;;;;;162.23;42.75;;;3.90;99.90;;;;;;5013419;28;20092;-80
2023/01/03 11:53:29;;;;;;;150.07;42.33;;;4.00;99.90;;;;;;4996732;28;20049;-80
2023/01/03 11:56:21;;;;;;;141.15;37.92;;;4.10;99.90;;;;;;4983498;28;20050;-80
2023/01/03 11:59:02;;;;;;;147.52;39.75;;;4.20;99.90;;;;;;5013403;28;20054;-80
2023/01/03 12:01:53;;;;;;;151.80;37.20;;;4.20;99.90;;;;;;5013092;28;20050;-80
2023/01/03 12:04:39;;;;;;;174.10;47.85;;;4.30;99.90;;;;;;5013465;28;20622;-80
2023/01/03 12:07:15;;;;;;;160.88;41.70;;;4.30;99.90;;;;;;5013042;28;20057;-81
2023/01/03 12:10:09;;;;;;;176.10;43.70;;;4.50;99.90;;;;;;5013169;28;20552;-81
2023/01/03 12:12:46;;;;;;;175.45;46.17;;;4.50;99.90;;;;;;5014340;28;20053;-81
2023/01/03 12:15:38;;;;;;;184.63;47.10;;;4.40;99.90;;;;;;5012970;28;20049;-81
2023/01/03 12:18:20;;;;;;;168.38;46.70;;;4.50;99.90;;;;;;5012913;28;20132;-81
2023/01/03 12:21:01;;;;;;;166.43;40.22;;;4.50;99.90;;;;;;5013053;28;20049;-80
2023/01/03 12:23:30;;;;;;;178.10;47.47;;;4.60;99.90;;;;;;5014127;28;20467;-81
2023/01/03 12:25:59;;;;;;;186.88;49.10;;;4.80;99.90;;;;;;5012950;28;20046;-81
2023/01/03 12:28:46;;;;;;;195.15;55.70;;;4.90;99.90;;;;;;5014033;28;20037;-80
2023/01/03 12:31:35;;;;;;;201.55;51.40;;;4.90;99.90;;;;;;5012819;28;20050;-80
2023/01/03 12:34:19;;;;;;;188.35;47.72;;;4.90;99.90;;;;;;5012932;28;20050;-80
2023/01/03 12:36:53;;;;;;;221.02;56.08;;;5.00;99.90;;;;;;5012793;28;20099;-80
2023/01/03 12:39:38;;;;;;;205.55;53.03;;;4.80;99.90;;;;;;5012714;28;20399;-80
2023/01/03 12:42:26;;;;;;;191.80;46.40;;;4.90;99.90;;;;;;5012103;28;20038;-80
2023/01/03 12:45:06;;;;;;;184.05;49.80;;;5.10;99.90;;;;;;5013802;28;20489;-80
2023/01/03 12:48:03;;;;;;;209.32;51.63;;;5.00;99.90;;;;;;5012487;28;20527;-81
2023/01/03 12:50:49;;;;;;;188.43;48.40;;;5.10;99.90;;;;;;5012453;28;20512;-81
2023/01/03 12:53:38;;;;;;;199.82;51.92;;;5.20;99.90;;;;;;5012844;28;20038;-81
2023/01/03 12:56:42;;;;;;;192.13;50.50;;;5.10;99.90;;;;;;5012397;28;20053;-80
2023/01/03 12:59:37;;;;;;;207.77;51.92;;;5.30;99.90;;;;;;5012385;28;20049;-80
2023/01/03 13:02:22;;;;;;;190.40;51.50;;;5.40;99.90;;;;;;5012562;28;20050;-80
2023/01/03 13:05:12;;;;;;;205.95;54.03;;;5.40;99.90;;;;;;5012611;28;20057;-80
2023/01/03 13:07:42;;;;;;;216.98;54.95;;;5.40;99.90;;;;;;5012325;28;20041;-81
2023/01/03 13:10:15;;;;;;;216.25;50.45;;;5.50;99.90;;;;;;5013579;28;20092;-80
2023/01/03 13:12:47;;;;;;;189.40;55.65;;;5.50;99.90;;;;;;5013521;28;20124;-80
2023/01/03 13:15:15;;;;;;;208.52;55.67;;;5.50;99.90;;;;;;5012187;28;20081;-80
2023/01/03 13:17:43;;;;;;;199.48;52.03;;;5.60;99.90;;;;;;5012649;28;20135;-80
2023/01/03 13:20:32;;;;;;;195.55;51.20;;;5.70;99.90;;;;;;5013691;28;20057;-81
2023/01/03 13:23:17;;;;;;;204.90;53.58;;;5.60;99.90;;;;;;5012242;28;20132;-81
2023/01/03 13:25:43;;;;;;;186.90;52.20;;;5.80;99.90;;;;;;5012381;28;20054;-80
2023/01/03 13:28:21;;;;;;;187.25;50.60;;;5.70;99.90;;;;;;5012092;28;20064;-81
2023/01/03 13:30:47;;;;;;;178.48;47.50;;;5.70;99.90;;;;;;5012354;28;20121;-80
2023/01/03 13:33:15;;;;;;;175.95;46.47;;;5.80;99.90;;;;;;5011951;28;20129;-80
2023/01/03 13:35:43;;;;;;;173.23;47.47;;;5.90;99.90;;;;;;5013488;28;20053;-81
2023/01/03 13:38:34;;;;;;;160.13;44.90;;;5.90;99.90;;;;;;5012072;28;20137;-81
2023/01/03 13:41:36;;;;;;;136.65;38.10;;;6.00;99.90;;;;;;5012184;28;20057;-81
2023/01/03 13:44:23;;;;;;;153.48;43.42;;;6.00;99.90;;;;;;5013221;28;20406;-81
2023/01/03 13:46:50;;;;;;;151.65;45.15;;;5.90;99.90;;;;;;5011974;28;20048;-80
2023/01/03 13:49:22;;;;;;;150.65;42.97;;;6.00;99.90;;;;;;5013238;28;20480;-81
2023/01/03 13:51:56;;;;;;;141.05;41.40;;;6.00;99.90;;;;;;5013564;28;20049;-81
2023/01/03 13:54:21;;;;;;;140.35;38.75;;;6.00;99.90;;;;;;5016991;28;20052;-80
2023/01/03 13:56:47;;;;;;;141.90;40.95;;;6.00;99.90;;;;;;5015584;28;20058;-80
2023/01/03 13:59:34;;;;;;;138.23;39.42;;;6.20;99.90;;;;;;5016927;28;20045;-80
2023/01/03 14:02:08;;;;;;;116.43;34.53;;;6.20;99.90;;;;;;5015491;28;20478;-89
2023/01/03 14:05:04;;;;;;;136.93;38.08;;;6.10;99.90;;;;;;5016558;28;20062;-80
2023/01/03 14:08:08;;;;;;;125.93;37.20;;;6.10;99.90;;;;;;5015145;28;20045;-79
2023/01/03 14:10:52;;;;;;;126.68;37.05;;;6.30;99.90;;;;;;5015389;28;20049;-77
2023/01/03 14:13:32;;;;;;;110.15;33.65;;;6.20;99.90;;;;;;5016350;28;20072;-80